createdAt,value
2017-12-30T00:00:04.463Z,59.70
2017-12-30T00:02:33.262Z,59.70
2017-12-30T00:05:01.851Z,59.40
2017-12-30T00:07:30.121Z,59.50
2017-12-30T00:09:58.359Z,59.60
2017-12-30T00:12:27.249Z,59.30
2017-12-30T00:14:55.752Z,59.20
2017-12-30T00:17:24.852Z,59.20
2017-12-30T00:19:53.120Z,59.30
2017-12-30T00:22:21.445Z,59.10
2017-12-30T00:24:49.717Z,59.10
2017-12-30T00:27:17.958Z,59.30
2017-12-30T00:29:46.223Z,58.90
2017-12-30T00:32:14.487Z,58.90
2017-12-30T00:34:43.523Z,58.90
2017-12-30T00:37:12.039Z,58.80
2017-12-30T00:39:40.281Z,58.90
2017-12-30T00:42:08.720Z,58.90
2017-12-30T00:44:37.796Z,58.90
2017-12-30T00:47:06.044Z,58.60
2017-12-30T00:49:34.304Z,58.40
2017-12-30T00:52:02.582Z,58.50
2017-12-30T00:54:30.854Z,58.30
2017-12-30T00:57:00.003Z,58.20
2017-12-30T00:59:28.512Z,58.10
2017-12-30T01:01:57.487Z,58.10
2017-12-30T01:04:26.493Z,58.10
2017-12-30T01:06:55.575Z,57.90
2017-12-30T01:09:23.873Z,58.10
2017-12-30T01:11:52.123Z,57.80
2017-12-30T01:14:20.409Z,57.70
2017-12-30T01:16:48.651Z,57.80
2017-12-30T01:19:16.892Z,57.90
2017-12-30T01:21:45.206Z,57.80
2017-12-30T01:24:13.686Z,57.80
2017-12-30T01:26:41.930Z,58.00
2017-12-30T01:29:11.736Z,58.00
2017-12-30T01:31:40.019Z,57.80
2017-12-30T01:34:08.281Z,58.40
2017-12-30T01:36:36.720Z,57.60
2017-12-30T01:39:04.984Z,57.60
2017-12-30T01:41:33.227Z,57.50
2017-12-30T01:44:01.557Z,57.30
2017-12-30T01:46:29.792Z,56.90
2017-12-30T01:49:03.780Z,57.50
2017-12-30T01:51:32.060Z,57.30
2017-12-30T01:54:00.300Z,57.10
2017-12-30T01:56:30.289Z,57.30
2017-12-30T01:58:58.521Z,57.20
2017-12-30T02:01:27.642Z,57.30
2017-12-30T02:03:56.664Z,57.30
2017-12-30T02:06:24.943Z,57.20
2017-12-30T02:08:53.287Z,57.20
2017-12-30T02:11:22.617Z,57.00
2017-12-30T02:13:50.856Z,56.90
2017-12-30T02:16:19.103Z,56.80
2017-12-30T02:18:47.472Z,56.70
2017-12-30T02:21:16.533Z,56.70
2017-12-30T02:23:45.801Z,56.90
2017-12-30T02:26:14.169Z,56.70
2017-12-30T02:28:42.412Z,56.70
2017-12-30T02:31:10.683Z,56.70
2017-12-30T02:33:38.964Z,56.70
2017-12-30T02:36:07.238Z,56.70
2017-12-30T02:38:37.912Z,56.70
2017-12-30T02:41:06.140Z,56.80
2017-12-30T02:43:35.159Z,56.80
2017-12-30T02:46:03.435Z,56.60
2017-12-30T02:48:31.677Z,56.60
2017-12-30T02:51:00.074Z,56.80
2017-12-30T02:53:29.101Z,56.70
2017-12-30T02:55:57.364Z,56.80
2017-12-30T02:58:25.744Z,56.80
2017-12-30T03:00:54.651Z,56.80
2017-12-30T03:03:23.969Z,56.60
2017-12-30T03:05:52.236Z,56.80
2017-12-30T03:08:20.485Z,56.60
2017-12-30T03:10:48.762Z,56.60
2017-12-30T03:13:17.035Z,56.50
2017-12-30T03:15:45.300Z,56.30
2017-12-30T03:18:13.563Z,56.40
2017-12-30T03:20:42.921Z,56.40
2017-12-30T03:23:11.224Z,56.50
2017-12-30T03:25:39.488Z,56.70
2017-12-30T03:28:07.776Z,56.40
2017-12-30T03:30:36.038Z,56.50
2017-12-30T03:33:04.301Z,56.40
2017-12-30T03:35:33.380Z,56.40
2017-12-30T03:38:01.640Z,56.50
2017-12-30T03:40:29.869Z,56.60
2017-12-30T03:42:59.139Z,56.60
2017-12-30T03:45:27.418Z,56.60
2017-12-30T03:47:55.702Z,56.50
2017-12-30T03:50:23.981Z,56.80
2017-12-30T03:52:52.263Z,56.60
2017-12-30T03:55:20.585Z,56.60
2017-12-30T03:57:48.844Z,56.40
2017-12-30T04:00:18.891Z,56.70
2017-12-30T04:02:47.168Z,56.60
2017-12-30T04:05:15.419Z,56.60
2017-12-30T04:07:44.527Z,56.70
2017-12-30T04:10:13.567Z,57.00
2017-12-30T04:12:41.843Z,56.80
2017-12-30T04:15:10.277Z,56.70
2017-12-30T04:17:38.537Z,56.90
2017-12-30T04:20:06.804Z,56.50
2017-12-30T04:22:36.590Z,56.70
2017-12-30T04:25:06.547Z,56.50
2017-12-30T04:27:36.435Z,56.60
2017-12-30T04:30:04.695Z,56.50
2017-12-30T04:32:33.857Z,56.50
2017-12-30T04:35:02.124Z,56.80
2017-12-30T04:37:31.133Z,56.90
2017-12-30T04:39:59.422Z,56.60
2017-12-30T04:42:28.308Z,56.60
2017-12-30T04:44:56.549Z,56.70
2017-12-30T04:47:24.835Z,56.70
2017-12-30T04:49:53.095Z,56.90
2017-12-30T04:52:21.389Z,56.70
2017-12-30T04:54:49.652Z,56.70
2017-12-30T04:57:17.893Z,56.60
2017-12-30T04:59:47.126Z,56.60
2017-12-30T05:02:16.171Z,56.50
2017-12-30T05:04:44.492Z,56.70
2017-12-30T05:07:12.728Z,56.70
2017-12-30T05:09:40.993Z,56.70
2017-12-30T05:12:09.287Z,56.70
2017-12-30T05:14:37.524Z,56.90
2017-12-30T05:17:05.807Z,56.90
2017-12-30T05:19:34.057Z,57.00
2017-12-30T05:22:02.312Z,57.00
2017-12-30T05:24:30.684Z,57.00
2017-12-30T05:26:59.091Z,57.00
2017-12-30T05:29:27.348Z,56.70
2017-12-30T05:31:57.315Z,56.90
2017-12-30T05:34:25.561Z,56.70
2017-12-30T05:36:53.840Z,56.80
2017-12-30T05:39:22.078Z,56.90
2017-12-30T05:41:50.363Z,56.80
2017-12-30T05:44:18.652Z,56.60
2017-12-30T05:46:47.755Z,56.80
2017-12-30T05:49:16.033Z,56.90
2017-12-30T05:51:44.349Z,56.90
2017-12-30T05:54:12.699Z,56.90
2017-12-30T05:56:41.072Z,56.90
2017-12-30T05:59:09.344Z,56.70
2017-12-30T06:01:37.585Z,56.80
2017-12-30T06:04:06.632Z,56.90
2017-12-30T06:06:34.951Z,57.00
2017-12-30T06:09:04.051Z,57.10
2017-12-30T06:11:32.320Z,57.10
2017-12-30T06:14:00.631Z,57.20
2017-12-30T06:16:29.544Z,57.40
2017-12-30T06:18:57.836Z,57.30
2017-12-30T06:21:26.677Z,57.60
2017-12-30T06:23:55.142Z,57.60
2017-12-30T06:26:23.401Z,57.80
2017-12-30T06:28:51.667Z,57.80
2017-12-30T06:31:19.938Z,57.80
2017-12-30T06:33:49.043Z,58.20
2017-12-30T06:36:17.304Z,58.30
2017-12-30T06:38:45.558Z,58.40
2017-12-30T06:41:14.592Z,58.40
2017-12-30T06:43:42.844Z,58.50
2017-12-30T06:46:11.835Z,58.70
2017-12-30T06:48:40.097Z,58.70
2017-12-30T06:51:09.128Z,59.30
2017-12-30T06:53:37.387Z,59.10
2017-12-30T06:56:06.215Z,59.10
2017-12-30T06:58:34.544Z,59.00
2017-12-30T07:01:03.544Z,59.20
2017-12-30T07:03:32.015Z,59.20
2017-12-30T07:06:01.132Z,59.10
2017-12-30T07:08:30.296Z,59.10
2017-12-30T07:10:58.554Z,59.30
2017-12-30T07:13:26.817Z,59.20
2017-12-30T07:15:55.071Z,59.20
2017-12-30T07:18:24.410Z,59.10
2017-12-30T07:20:52.664Z,59.00
2017-12-30T07:23:20.992Z,58.90
2017-12-30T07:25:49.440Z,59.10
2017-12-30T07:28:17.696Z,59.10
2017-12-30T07:30:46.013Z,59.10
2017-12-30T07:33:14.258Z,59.30
2017-12-30T07:35:42.518Z,59.20
2017-12-30T07:38:11.749Z,59.00
2017-12-30T07:40:40.030Z,59.50
2017-12-30T07:43:09.423Z,59.50
2017-12-30T07:45:37.712Z,59.40
2017-12-30T07:48:06.940Z,59.50
2017-12-30T07:50:36.260Z,59.40
2017-12-30T07:53:04.909Z,59.80
2017-12-30T07:55:34.763Z,59.90
2017-12-30T07:58:03.033Z,59.90
2017-12-30T08:00:31.271Z,60.00
2017-12-30T08:02:59.565Z,60.00
2017-12-30T08:05:27.799Z,60.10
2017-12-30T08:07:56.057Z,60.20
2017-12-30T08:10:24.408Z,60.30
2017-12-30T08:12:52.643Z,60.40
2017-12-30T08:15:20.891Z,60.40
2017-12-30T08:17:49.389Z,60.40
2017-12-30T08:20:17.615Z,60.40
2017-12-30T08:22:45.887Z,60.50
2017-12-30T08:25:14.211Z,60.20
2017-12-30T08:27:42.514Z,60.40
2017-12-30T08:30:10.796Z,60.40
2017-12-30T08:32:39.048Z,60.40
2017-12-30T08:35:08.241Z,60.40
2017-12-30T08:37:36.498Z,60.60
2017-12-30T08:40:04.764Z,60.70
2017-12-30T08:42:33.012Z,61.10
2017-12-30T08:45:01.290Z,60.60
2017-12-30T08:47:29.563Z,60.70
2017-12-30T08:49:57.815Z,60.80
2017-12-30T08:52:26.850Z,61.00
2017-12-30T08:54:55.995Z,61.80
2017-12-30T08:57:24.721Z,61.30
2017-12-30T08:59:55.204Z,61.50
2017-12-30T09:02:24.945Z,61.60
2017-12-30T09:04:53.378Z,61.40
2017-12-30T09:07:22.532Z,61.70
2017-12-30T09:09:50.805Z,61.80
2017-12-30T09:12:19.793Z,62.00
2017-12-30T09:14:48.078Z,62.50
2017-12-30T09:17:17.081Z,62.20
2017-12-30T09:19:45.447Z,62.20
2017-12-30T09:22:13.735Z,62.00
2017-12-30T09:24:41.999Z,62.50
2017-12-30T09:27:10.277Z,62.30
2017-12-30T09:29:38.588Z,62.30
2017-12-30T09:32:06.857Z,62.50
2017-12-30T09:34:35.104Z,62.70
2017-12-30T09:37:03.441Z,62.90
2017-12-30T09:39:31.777Z,62.80
2017-12-30T09:42:00.075Z,63.00
2017-12-30T09:44:28.299Z,63.10
2017-12-30T09:46:56.592Z,63.00
2017-12-30T09:49:24.916Z,63.20
2017-12-30T09:51:54.993Z,63.40
2017-12-30T09:54:23.279Z,63.50
2017-12-30T09:56:51.564Z,63.50
2017-12-30T09:59:20.711Z,63.80
2017-12-30T10:01:49.878Z,64.10
2017-12-30T10:04:18.594Z,64.00
2017-12-30T10:06:47.625Z,63.80
2017-12-30T10:09:15.970Z,63.60
2017-12-30T10:14:19.348Z,63.70
2017-12-30T10:16:47.630Z,63.90
2017-12-30T10:19:16.073Z,64.10
2017-12-30T10:21:44.344Z,64.20
2017-12-30T10:24:12.608Z,64.10
2017-12-30T10:26:40.875Z,64.40
2017-12-30T10:29:09.305Z,64.70
2017-12-30T10:31:37.605Z,64.40
2017-12-30T10:34:05.865Z,64.50
2017-12-30T10:36:34.944Z,64.60
2017-12-30T10:39:05.217Z,64.80
2017-12-30T10:41:33.492Z,64.90
2017-12-30T10:44:01.732Z,64.90
2017-12-30T10:46:31.677Z,65.30
2017-12-30T10:49:00.439Z,65.30
2017-12-30T10:51:29.680Z,64.90
2017-12-30T10:53:58.688Z,65.20
2017-12-30T10:56:26.961Z,65.20
2017-12-30T10:58:55.209Z,65.10
2017-12-30T11:01:23.449Z,65.40
2017-12-30T11:03:51.738Z,65.40
2017-12-30T11:06:20.008Z,65.40
2017-12-30T11:08:48.263Z,65.70
2017-12-30T11:11:16.528Z,65.90
2017-12-30T11:13:44.823Z,66.00
2017-12-30T11:16:13.138Z,66.20
2017-12-30T11:18:41.420Z,66.20
2017-12-30T11:21:09.689Z,66.40
2017-12-30T11:23:37.963Z,66.60
2017-12-30T11:26:06.987Z,66.60
2017-12-30T11:28:36.379Z,66.60
2017-12-30T11:31:05.440Z,66.60
2017-12-30T11:33:34.563Z,66.60
2017-12-30T11:36:03.384Z,66.70
2017-12-30T11:38:31.656Z,66.90
2017-12-30T11:41:00.842Z,66.90
2017-12-30T11:43:29.131Z,67.50
2017-12-30T11:45:57.375Z,66.10
2017-12-30T11:48:25.648Z,66.70
2017-12-30T11:50:53.924Z,66.10
2017-12-30T11:53:22.532Z,65.70
2017-12-30T11:55:51.564Z,66.30
2017-12-30T11:58:19.828Z,66.00
2017-12-30T12:00:48.109Z,66.10
2017-12-30T12:03:16.356Z,66.30
2017-12-30T12:05:44.668Z,66.30
2017-12-30T12:08:12.911Z,66.00
2017-12-30T12:10:41.181Z,66.20
2017-12-30T12:13:09.443Z,66.30
2017-12-30T12:15:37.711Z,66.00
2017-12-30T12:18:05.990Z,65.90
2017-12-30T12:20:34.249Z,65.80
2017-12-30T12:23:04.904Z,66.30
2017-12-30T12:25:34.625Z,66.70
2017-12-30T12:28:03.832Z,66.20
2017-12-30T12:30:32.087Z,66.30
2017-12-30T12:33:00.360Z,66.20
2017-12-30T12:35:30.142Z,66.70
2017-12-30T12:37:59.418Z,66.30
2017-12-30T12:40:27.659Z,66.50
2017-12-30T12:42:57.543Z,66.70
2017-12-30T12:45:25.800Z,66.50
2017-12-30T12:47:54.062Z,66.80
2017-12-30T12:50:23.289Z,66.60
2017-12-30T12:52:52.552Z,66.80
2017-12-30T12:55:20.835Z,66.80
2017-12-30T12:57:49.120Z,66.60
2017-12-30T13:00:18.088Z,66.70
2017-12-30T13:02:46.352Z,66.80
2017-12-30T13:05:16.346Z,67.10
2017-12-30T13:07:44.627Z,66.80
2017-12-30T13:10:14.377Z,66.70
2017-12-30T13:12:43.515Z,67.00
2017-12-30T13:15:11.746Z,67.10
2017-12-30T13:17:40.005Z,66.40
2017-12-30T13:20:09.286Z,66.50
2017-12-30T13:22:37.520Z,66.50
2017-12-30T13:25:05.782Z,66.40
2017-12-30T13:27:34.062Z,66.30
2017-12-30T13:30:02.362Z,66.30
2017-12-30T13:32:32.324Z,66.10
2017-12-30T13:35:01.475Z,66.20
2017-12-30T13:37:30.289Z,65.90
2017-12-30T13:39:59.773Z,66.20
2017-12-30T13:42:29.877Z,66.10
2017-12-30T13:44:58.115Z,65.80
2017-12-30T13:47:26.388Z,65.80
2017-12-30T13:49:55.526Z,65.80
2017-12-30T13:52:24.699Z,65.90
2017-12-30T13:54:52.977Z,65.50
2017-12-30T13:57:21.263Z,65.50
2017-12-30T13:59:51.836Z,65.20
2017-12-30T14:02:21.792Z,64.90
2017-12-30T14:04:50.051Z,64.70
2017-12-30T14:07:21.247Z,64.00
2017-12-30T14:09:50.309Z,64.10
2017-12-30T14:12:18.595Z,63.90
2017-12-30T14:14:47.944Z,63.50
2017-12-30T14:17:16.257Z,63.30
2017-12-30T14:19:45.842Z,63.30
2017-12-30T14:22:15.692Z,63.10
2017-12-30T14:24:44.473Z,63.10
2017-12-30T14:27:13.249Z,63.20
2017-12-30T14:29:42.446Z,63.10
2017-12-30T14:32:11.614Z,62.50
2017-12-30T14:34:39.872Z,62.60
2017-12-30T14:37:08.166Z,62.60
2017-12-30T14:39:36.455Z,62.50
2017-12-30T14:42:05.703Z,61.90
2017-12-30T14:44:34.812Z,62.10
2017-12-30T14:47:04.019Z,61.80
2017-12-30T14:49:32.421Z,61.50
2017-12-30T14:52:00.675Z,61.40
2017-12-30T14:54:28.978Z,61.30
2017-12-30T14:56:57.738Z,61.20
2017-12-30T14:59:26.019Z,61.20
2017-12-30T15:01:54.291Z,60.80
2017-12-30T15:04:23.593Z,60.90
2017-12-30T15:06:51.883Z,60.90
2017-12-30T15:09:20.156Z,60.60
2017-12-30T15:11:48.416Z,60.50
2017-12-30T15:14:16.880Z,60.60
2017-12-30T15:16:45.154Z,60.30
2017-12-30T15:19:13.429Z,60.30
2017-12-30T15:21:41.740Z,60.30
2017-12-30T15:24:11.037Z,60.30
2017-12-30T15:26:40.092Z,60.40
2017-12-30T15:29:09.944Z,60.40
2017-12-30T15:31:38.232Z,60.40
2017-12-30T15:34:07.385Z,60.00
2017-12-30T15:36:35.677Z,60.20
2017-12-30T15:39:06.114Z,60.20
2017-12-30T15:41:34.367Z,59.90
2017-12-30T15:44:05.591Z,59.90
2017-12-30T15:46:33.857Z,59.90
2017-12-30T15:49:03.106Z,59.60
2017-12-30T15:51:32.908Z,59.70
2017-12-30T15:54:06.851Z,59.30
2017-12-30T15:56:35.327Z,59.30
2017-12-30T15:59:04.375Z,59.30
2017-12-30T16:01:32.666Z,58.90
2017-12-30T16:04:01.772Z,58.90
2017-12-30T16:06:30.032Z,58.70
2017-12-30T16:08:58.367Z,58.70
2017-12-30T16:11:27.447Z,58.90
2017-12-30T16:13:56.544Z,58.70
2017-12-30T16:16:24.761Z,58.90
2017-12-30T16:18:53.802Z,58.90
2017-12-30T16:21:23.763Z,58.90
2017-12-30T16:23:53.572Z,58.80
2017-12-30T16:26:23.664Z,58.90
2017-12-30T16:28:51.960Z,58.70
2017-12-30T16:31:20.216Z,59.00
2017-12-30T16:33:49.453Z,58.90
2017-12-30T16:36:18.784Z,58.80
2017-12-30T16:38:47.077Z,58.90
2017-12-30T16:41:17.685Z,59.00
2017-12-30T16:43:46.239Z,58.80
2017-12-30T16:46:15.454Z,58.90
2017-12-30T16:48:44.513Z,58.70
2017-12-30T16:51:15.641Z,58.60
2017-12-30T16:53:43.918Z,58.30
2017-12-30T16:56:12.643Z,58.50
2017-12-30T16:58:40.984Z,58.60
2017-12-30T17:01:09.296Z,58.50
2017-12-30T17:03:38.454Z,58.50
2017-12-30T17:06:08.696Z,58.30
2017-12-30T17:08:37.819Z,58.30
2017-12-30T17:11:06.803Z,58.20
2017-12-30T17:13:35.675Z,58.30
2017-12-30T17:16:04.837Z,58.00
2017-12-30T17:18:34.065Z,57.80
2017-12-30T17:21:02.378Z,58.10
2017-12-30T17:23:31.672Z,57.90
2017-12-30T17:25:59.926Z,58.20
2017-12-30T17:28:30.033Z,58.10
2017-12-30T17:30:59.203Z,58.70
2017-12-30T17:33:27.475Z,58.10
2017-12-30T17:35:55.891Z,58.20
2017-12-30T17:38:24.185Z,58.40
2017-12-30T17:40:52.447Z,58.30
2017-12-30T17:43:20.721Z,58.50
2017-12-30T17:45:49.951Z,58.40
2017-12-30T17:48:18.256Z,58.60
2017-12-30T17:50:46.548Z,58.50
2017-12-30T17:53:15.725Z,58.90
2017-12-30T17:55:44.075Z,58.70
2017-12-30T17:58:12.364Z,58.70
2017-12-30T18:00:41.628Z,58.80
2017-12-30T18:03:10.676Z,58.90
2017-12-30T18:05:38.942Z,58.80
2017-12-30T18:08:08.365Z,58.80
2017-12-30T18:10:36.637Z,58.50
2017-12-30T18:13:05.720Z,58.40
2017-12-30T18:15:35.125Z,58.60
2017-12-30T18:18:03.364Z,58.90
2017-12-30T18:20:32.589Z,59.10
2017-12-30T18:23:01.077Z,59.00
2017-12-30T18:25:29.420Z,59.00
2017-12-30T18:27:57.657Z,59.00
2017-12-30T18:30:27.645Z,58.80
2017-12-30T18:32:56.925Z,59.00
2017-12-30T18:35:25.179Z,58.90
2017-12-30T18:37:55.384Z,59.00
2017-12-30T18:40:23.760Z,59.10
2017-12-30T18:42:52.024Z,59.60
2017-12-30T18:45:22.345Z,58.90
2017-12-30T18:47:51.635Z,58.90
2017-12-30T18:50:20.884Z,58.90
2017-12-30T18:52:49.979Z,59.00
2017-12-30T18:55:19.025Z,58.90
2017-12-30T18:57:47.296Z,58.90
2017-12-30T19:00:16.454Z,58.90
2017-12-30T19:02:44.716Z,59.20
2017-12-30T19:05:13.760Z,58.80
2017-12-30T19:07:42.960Z,58.90
2017-12-30T19:10:12.711Z,58.90
2017-12-30T19:12:41.771Z,58.90
2017-12-30T19:15:12.093Z,58.80
2017-12-30T19:17:40.384Z,58.80
2017-12-30T19:20:09.109Z,58.90
2017-12-30T19:22:38.232Z,58.90
2017-12-30T19:25:06.484Z,58.90
2017-12-30T19:27:35.695Z,59.10
2017-12-30T19:30:04.051Z,58.90
2017-12-30T19:32:32.548Z,59.20
2017-12-30T19:35:02.285Z,59.20
2017-12-30T19:37:31.528Z,59.00
2017-12-30T19:40:00.118Z,59.30
2017-12-30T19:42:30.464Z,59.40
2017-12-30T19:45:07.595Z,59.20
2017-12-30T19:47:37.717Z,59.40
2017-12-30T19:50:11.375Z,59.00
2017-12-30T19:52:41.310Z,59.00
2017-12-30T19:55:09.792Z,59.20
2017-12-30T19:57:38.984Z,59.10
2017-12-30T20:00:09.123Z,59.10
2017-12-30T20:02:42.985Z,59.10
2017-12-30T20:05:11.274Z,59.10
2017-12-30T20:07:41.297Z,59.10
2017-12-30T20:10:17.008Z,59.20
2017-12-30T20:12:46.421Z,59.10
2017-12-30T20:15:16.426Z,59.20
2017-12-30T20:17:47.049Z,59.30
2017-12-30T20:20:15.478Z,59.20
2017-12-30T20:22:44.884Z,59.30
2017-12-30T20:25:14.983Z,59.40
2017-12-30T20:27:47.425Z,59.20
2017-12-30T20:30:18.242Z,59.20
2017-12-30T20:32:47.295Z,59.40
2017-12-30T20:35:16.446Z,59.20
2017-12-30T20:37:45.827Z,59.10
2017-12-30T20:40:14.086Z,59.40
2017-12-30T20:42:42.474Z,59.30
2017-12-30T20:45:15.125Z,59.40
2017-12-30T20:47:45.732Z,59.10
2017-12-30T20:50:14.101Z,59.10
2017-12-30T20:52:42.517Z,58.90
2017-12-30T20:55:10.825Z,58.90
2017-12-30T20:57:39.915Z,58.60
2017-12-30T21:00:08.176Z,58.70
2017-12-30T21:02:36.467Z,58.90
2017-12-30T21:05:04.720Z,58.90
2017-12-30T21:07:33.132Z,58.70
2017-12-30T21:10:01.481Z,58.70
2017-12-30T21:12:31.749Z,58.90
2017-12-30T21:15:00.025Z,58.60
2017-12-30T21:17:28.307Z,58.60
2017-12-30T21:19:58.301Z,58.90
2017-12-30T21:22:26.565Z,58.60
2017-12-30T21:24:55.641Z,58.60
2017-12-30T21:27:23.919Z,59.00
2017-12-30T21:29:52.184Z,59.00
2017-12-30T21:32:20.483Z,58.90
2017-12-30T21:34:48.724Z,58.90
2017-12-30T21:37:17.033Z,58.90
2017-12-30T21:39:45.453Z,58.90
2017-12-30T21:42:14.378Z,58.80
2017-12-30T21:44:42.688Z,58.50
2017-12-30T21:47:10.954Z,58.50
2017-12-30T21:49:39.242Z,58.70
2017-12-30T21:52:07.524Z,58.70
2017-12-30T21:54:37.651Z,58.90
2017-12-30T21:57:05.955Z,58.90
2017-12-30T21:59:34.340Z,58.90
2017-12-30T22:02:03.039Z,58.90
2017-12-30T22:04:31.370Z,59.20
2017-12-30T22:07:00.461Z,59.20
2017-12-30T22:09:28.697Z,59.30
2017-12-30T22:11:57.015Z,59.30
2017-12-30T22:14:27.018Z,59.40
2017-12-30T22:17:00.071Z,59.00
2017-12-30T22:19:29.348Z,59.40
2017-12-30T22:21:59.034Z,59.10
2017-12-30T22:24:31.695Z,59.30
2017-12-30T22:27:02.654Z,59.20
2017-12-30T22:29:32.491Z,59.20
2017-12-30T22:32:01.715Z,59.40
2017-12-30T22:34:32.363Z,59.30
2017-12-30T22:37:01.689Z,59.40
2017-12-30T22:39:35.108Z,59.40
2017-12-30T22:42:06.056Z,59.40
2017-12-30T22:44:40.810Z,59.40
2017-12-30T22:47:10.526Z,59.50
2017-12-30T22:49:39.981Z,59.20
2017-12-30T22:52:10.803Z,59.40
2017-12-30T22:54:40.827Z,59.40
2017-12-30T22:57:10.015Z,59.40
2017-12-30T22:59:42.782Z,59.40
2017-12-30T23:02:11.054Z,59.30
2017-12-30T23:04:39.361Z,59.40
2017-12-30T23:07:07.684Z,59.30
2017-12-30T23:09:36.706Z,59.40
2017-12-30T23:12:04.972Z,59.40
2017-12-30T23:14:33.420Z,59.40
2017-12-30T23:17:01.702Z,59.50
2017-12-30T23:19:30.675Z,59.30
2017-12-30T23:21:59.859Z,59.40
2017-12-30T23:24:28.101Z,59.30
2017-12-30T23:26:56.358Z,59.40
2017-12-30T23:29:25.491Z,59.40
2017-12-30T23:31:54.600Z,59.50
2017-12-30T23:34:22.852Z,59.50
2017-12-30T23:36:51.133Z,59.40
2017-12-30T23:39:20.108Z,59.40
2017-12-30T23:41:48.560Z,59.30
2017-12-30T23:44:17.556Z,59.50
2017-12-30T23:46:45.827Z,59.40
2017-12-30T23:49:14.169Z,59.40
2017-12-30T23:51:42.455Z,59.60
2017-12-30T23:54:10.784Z,59.40
2017-12-30T23:56:39.116Z,59.40
2017-12-30T23:59:07.518Z,59.40
